createdAt,value
2018-09-13T00:00:05.432Z,9.25
2018-09-13T00:01:08.984Z,9.00
2018-09-13T00:02:11.716Z,8.25
2018-09-13T00:03:14.521Z,8.75
2018-09-13T00:04:17.264Z,10.00
2018-09-13T00:05:20.381Z,8.75
2018-09-13T00:06:23.226Z,9.00
2018-09-13T00:07:25.946Z,8.00
2018-09-13T00:08:29.574Z,8.25
2018-09-13T00:09:33.074Z,9.00
2018-09-13T00:10:35.883Z,9.00
2018-09-13T00:11:39.303Z,7.75
2018-09-13T00:12:42.059Z,6.00
2018-09-13T00:13:44.919Z,8.75
2018-09-13T00:14:47.689Z,10.00
2018-09-13T00:15:50.459Z,9.25
2018-09-13T00:16:53.182Z,8.25
2018-09-13T00:17:56.205Z,8.00
2018-09-13T00:18:58.982Z,9.00
2018-09-13T00:20:01.767Z,9.50
2018-09-13T00:21:04.552Z,9.00
2018-09-13T00:22:07.363Z,8.00
2018-09-13T00:23:10.380Z,8.00
2018-09-13T00:24:13.441Z,9.50
2018-09-13T00:25:16.266Z,10.00
2018-09-13T00:26:19.029Z,9.50
2018-09-13T00:27:21.756Z,10.50
2018-09-13T00:28:24.529Z,8.50
2018-09-13T00:29:27.277Z,9.50
2018-09-13T00:30:30.369Z,9.25
2018-09-13T00:31:33.187Z,9.00
2018-09-13T00:32:35.930Z,8.25
2018-09-13T00:33:38.653Z,10.00
2018-09-13T00:34:41.390Z,9.50
2018-09-13T00:35:44.150Z,10.00
2018-09-13T00:36:47.222Z,8.00
2018-09-13T00:37:50.019Z,8.25
2018-09-13T00:38:52.791Z,7.00
2018-09-13T00:39:55.527Z,8.75
2018-09-13T00:40:58.302Z,8.50
2018-09-13T00:42:01.473Z,9.00
2018-09-13T00:43:04.897Z,9.00
2018-09-13T00:44:07.769Z,8.50
2018-09-13T00:45:10.547Z,10.50
2018-09-13T00:46:13.308Z,9.00
2018-09-13T00:47:16.034Z,9.50
2018-09-13T00:48:19.103Z,9.25
2018-09-13T00:49:21.871Z,8.50
2018-09-13T00:50:24.625Z,8.25
2018-09-13T00:51:27.454Z,8.00
2018-09-13T00:52:30.204Z,9.00
2018-09-13T00:53:32.980Z,9.50
2018-09-13T00:54:36.036Z,9.00
2018-09-13T00:55:38.806Z,8.25
2018-09-13T00:56:42.104Z,8.00
2018-09-13T00:57:44.884Z,8.75
2018-09-13T00:58:47.678Z,8.00
2018-09-13T00:59:50.437Z,8.75
2018-09-13T01:00:53.485Z,9.50
2018-09-13T01:01:56.284Z,8.00
2018-09-13T01:02:59.096Z,10.00
2018-09-13T01:04:02.837Z,9.75
2018-09-13T01:05:05.648Z,9.00
2018-09-13T01:06:08.410Z,9.25
2018-09-13T01:07:11.491Z,9.25
2018-09-13T01:08:14.259Z,9.50
2018-09-13T01:09:17.022Z,9.50
2018-09-13T01:10:19.809Z,9.75
2018-09-13T01:11:22.550Z,9.25
2018-09-13T01:12:26.025Z,9.00
2018-09-13T01:13:29.075Z,8.25
2018-09-13T01:14:31.846Z,10.50
2018-09-13T01:15:35.160Z,9.00
2018-09-13T01:16:37.957Z,9.00
2018-09-13T01:17:40.735Z,9.25
2018-09-13T01:18:43.499Z,11.50
2018-09-13T01:19:46.894Z,11.50
2018-09-13T01:20:49.662Z,9.50
2018-09-13T01:21:52.404Z,12.75
2018-09-13T01:22:55.181Z,14.50
2018-09-13T01:23:57.944Z,13.50
2018-09-13T01:25:00.716Z,16.00
2018-09-13T01:26:03.842Z,12.75
2018-09-13T01:27:06.650Z,13.50
2018-09-13T01:28:09.414Z,12.00
2018-09-13T01:29:12.173Z,12.00
2018-09-13T01:30:14.938Z,9.75
2018-09-13T01:31:17.707Z,10.50
2018-09-13T01:32:20.929Z,9.00
2018-09-13T01:33:23.689Z,10.75
2018-09-13T01:34:26.432Z,10.75
2018-09-13T01:35:29.238Z,10.75
2018-09-13T01:36:32.049Z,8.50
2018-09-13T01:37:34.810Z,9.00
2018-09-13T01:38:37.859Z,9.00
2018-09-13T01:39:40.614Z,9.00
2018-09-13T01:40:43.383Z,9.00
2018-09-13T01:41:46.177Z,9.25
2018-09-13T01:42:48.919Z,9.00
2018-09-13T01:43:51.656Z,10.75
2018-09-13T01:44:54.720Z,10.00
2018-09-13T01:45:57.512Z,8.50
2018-09-13T01:47:00.285Z,11.50
2018-09-13T01:48:03.048Z,8.00
2018-09-13T01:49:05.838Z,9.00
2018-09-13T01:50:08.668Z,10.50
2018-09-13T01:51:11.722Z,8.25
2018-09-13T01:52:14.505Z,9.25
2018-09-13T01:53:17.268Z,8.75
2018-09-13T01:54:20.029Z,8.25
2018-09-13T01:55:22.770Z,9.25
2018-09-13T01:56:26.870Z,9.00
2018-09-13T01:57:30.001Z,8.00
2018-09-13T01:58:32.799Z,9.00
2018-09-13T01:59:35.548Z,7.50
2018-09-13T02:00:38.581Z,8.25
2018-09-13T02:01:41.376Z,8.75
2018-09-13T02:02:44.158Z,9.00
2018-09-13T02:03:47.214Z,9.75
2018-09-13T02:04:51.589Z,9.50
2018-09-13T02:05:54.392Z,11.50
2018-09-13T02:06:57.164Z,12.25
2018-09-13T02:08:00.153Z,13.00
2018-09-13T02:09:02.967Z,11.50
2018-09-13T02:10:05.994Z,10.00
2018-09-13T02:11:08.873Z,9.75
2018-09-13T02:12:11.626Z,10.00
2018-09-13T02:13:14.357Z,10.50
2018-09-13T02:14:17.125Z,9.50
2018-09-13T02:15:19.873Z,9.00
2018-09-13T02:16:23.129Z,8.50
2018-09-13T02:17:26.456Z,8.75
2018-09-13T02:18:29.178Z,8.75
2018-09-13T02:19:32.327Z,10.75
2018-09-13T02:20:35.389Z,10.75
2018-09-13T02:21:38.501Z,9.25
2018-09-13T02:22:41.962Z,8.00
2018-09-13T02:23:44.688Z,9.00
2018-09-13T02:24:47.434Z,8.00
2018-09-13T02:25:50.278Z,9.25
2018-09-13T02:26:53.245Z,7.50
2018-09-13T02:27:56.569Z,8.25
2018-09-13T02:28:59.956Z,7.00
2018-09-13T02:30:02.691Z,8.00
2018-09-13T02:31:05.451Z,6.50
2018-09-13T02:32:08.267Z,6.75
2018-09-13T02:33:11.023Z,8.00
2018-09-13T02:34:13.804Z,5.00
2018-09-13T02:35:16.880Z,7.00
2018-09-13T02:36:19.616Z,5.50
2018-09-13T02:37:22.357Z,5.25
2018-09-13T02:38:25.116Z,6.00
2018-09-13T02:39:27.880Z,5.00
2018-09-13T02:40:30.668Z,5.25
2018-09-13T02:41:33.740Z,5.50
2018-09-13T02:42:36.541Z,6.00
2018-09-13T02:43:39.295Z,5.75
2018-09-13T02:44:42.060Z,6.00
2018-09-13T02:45:44.818Z,4.50
2018-09-13T02:46:47.638Z,5.75
2018-09-13T02:47:50.696Z,4.00
2018-09-13T02:48:53.456Z,5.00
2018-09-13T02:49:56.207Z,5.00
2018-09-13T02:50:58.970Z,4.00
2018-09-13T02:52:01.860Z,5.00
2018-09-13T02:53:04.656Z,5.00
2018-09-13T02:54:07.727Z,6.00
2018-09-13T02:55:10.544Z,5.00
2018-09-13T02:56:13.594Z,6.50
2018-09-13T02:57:16.364Z,6.00
2018-09-13T02:58:19.148Z,6.00
2018-09-13T02:59:21.890Z,5.00
2018-09-13T03:00:24.954Z,5.25
2018-09-13T03:01:27.780Z,5.00
2018-09-13T03:02:30.576Z,5.25
2018-09-13T03:03:33.484Z,6.00
2018-09-13T03:04:36.252Z,7.50
2018-09-13T03:05:39.041Z,4.25
2018-09-13T03:06:42.089Z,5.00
2018-09-13T03:07:44.864Z,7.25
2018-09-13T03:08:48.592Z,6.00
2018-09-13T03:09:51.344Z,5.00
2018-09-13T03:10:54.156Z,5.00
2018-09-13T03:11:56.937Z,5.00
2018-09-13T03:13:00.013Z,5.25
2018-09-13T03:14:03.056Z,5.50
2018-09-13T03:15:06.042Z,4.25
2018-09-13T03:16:08.804Z,4.25
2018-09-13T03:17:12.608Z,5.50
2018-09-13T03:18:15.457Z,5.50
2018-09-13T03:19:18.733Z,5.00
2018-09-13T03:20:21.572Z,5.00
2018-09-13T03:21:24.380Z,5.00
2018-09-13T03:22:27.201Z,5.50
2018-09-13T03:23:30.108Z,6.00
2018-09-13T03:24:32.862Z,5.00
2018-09-13T03:25:36.149Z,5.00
2018-09-13T03:26:38.920Z,5.50
2018-09-13T03:27:41.780Z,5.25
2018-09-13T03:28:44.633Z,5.50
2018-09-13T03:29:47.501Z,5.25
2018-09-13T03:30:50.358Z,5.75
2018-09-13T03:31:53.597Z,5.00
2018-09-13T03:32:56.464Z,7.00
2018-09-13T03:33:59.349Z,5.25
2018-09-13T03:35:02.157Z,5.50
2018-09-13T03:36:04.906Z,4.00
2018-09-13T03:37:07.696Z,5.00
2018-09-13T03:38:10.864Z,5.00
2018-09-13T03:39:13.997Z,4.75
2018-09-13T03:40:16.778Z,5.00
2018-09-13T03:41:19.557Z,7.50
2018-09-13T03:42:22.332Z,5.00
2018-09-13T03:43:25.142Z,4.50
2018-09-13T03:44:28.313Z,4.00
2018-09-13T03:45:33.107Z,4.00
2018-09-13T03:46:36.257Z,5.00
2018-09-13T03:47:39.132Z,4.00
2018-09-13T03:48:41.894Z,4.50
2018-09-13T03:49:44.661Z,5.00
2018-09-13T03:50:48.154Z,5.50
2018-09-13T03:51:51.950Z,5.00
2018-09-13T03:52:54.722Z,6.75
2018-09-13T03:53:57.529Z,6.00
2018-09-13T03:55:00.480Z,5.00
2018-09-13T03:56:03.264Z,5.75
2018-09-13T03:57:06.436Z,6.25
2018-09-13T03:58:09.212Z,8.00
2018-09-13T03:59:12.064Z,5.00
2018-09-13T04:00:14.833Z,4.00
2018-09-13T04:01:17.620Z,5.50
2018-09-13T04:02:20.432Z,5.25
2018-09-13T04:03:23.390Z,6.50
2018-09-13T04:04:26.245Z,4.00
2018-09-13T04:05:29.021Z,4.25
2018-09-13T04:06:31.830Z,6.50
2018-09-13T04:07:35.541Z,5.50
2018-09-13T04:08:38.779Z,5.00
2018-09-13T04:09:41.549Z,6.75
2018-09-13T04:10:44.336Z,4.50
2018-09-13T04:11:47.068Z,4.50
2018-09-13T04:12:49.994Z,4.75
2018-09-13T04:13:53.284Z,6.25
2018-09-13T04:14:56.352Z,5.00
2018-09-13T04:15:59.105Z,6.25
2018-09-13T04:17:01.891Z,5.00
2018-09-13T04:18:04.647Z,5.00
2018-09-13T04:19:07.410Z,4.50
2018-09-13T04:20:10.156Z,4.75
2018-09-13T04:21:13.624Z,5.00
2018-09-13T04:22:17.144Z,6.00
2018-09-13T04:23:19.889Z,5.00
2018-09-13T04:24:22.632Z,5.00
2018-09-13T04:25:25.371Z,5.00
2018-09-13T04:26:28.320Z,5.25
2018-09-13T04:27:31.382Z,5.75
2018-09-13T04:28:34.260Z,4.75
2018-09-13T04:29:36.985Z,5.00
2018-09-13T04:30:39.720Z,7.25
2018-09-13T04:31:43.616Z,6.00
2018-09-13T04:32:48.054Z,7.25
2018-09-13T04:33:51.274Z,8.25
2018-09-13T04:34:54.260Z,11.00
2018-09-13T04:35:57.353Z,8.00
2018-09-13T04:37:00.891Z,8.00
2018-09-13T04:38:03.716Z,6.75
2018-09-13T04:39:06.476Z,5.25
2018-09-13T04:40:09.582Z,5.75
2018-09-13T04:41:12.367Z,5.00
2018-09-13T04:42:15.136Z,5.00
2018-09-13T04:43:17.927Z,5.00
2018-09-13T04:44:20.664Z,5.00
2018-09-13T04:45:23.421Z,4.50
2018-09-13T04:46:26.481Z,5.25
2018-09-13T04:47:29.264Z,6.00
2018-09-13T04:48:32.035Z,5.00
2018-09-13T04:49:34.754Z,6.75
2018-09-13T04:50:37.515Z,5.50
2018-09-13T04:51:40.259Z,6.00
2018-09-13T04:52:43.317Z,5.50
2018-09-13T04:53:46.078Z,4.50
2018-09-13T04:54:48.825Z,4.00
2018-09-13T04:55:51.665Z,5.75
2018-09-13T04:56:54.388Z,5.00
2018-09-13T04:57:57.148Z,4.50
2018-09-13T04:59:01.138Z,5.00
2018-09-13T05:00:03.897Z,4.50
2018-09-13T05:01:06.645Z,5.00
2018-09-13T05:02:09.399Z,5.00
2018-09-13T05:03:13.401Z,6.00
2018-09-13T05:04:16.288Z,5.00
2018-09-13T05:05:19.350Z,6.00
2018-09-13T05:06:22.089Z,4.75
2018-09-13T05:07:24.841Z,6.00
2018-09-13T05:08:27.600Z,5.25
2018-09-13T05:09:30.357Z,5.00
2018-09-13T05:10:33.160Z,5.75
2018-09-13T05:11:36.489Z,7.75
2018-09-13T05:12:39.244Z,8.75
2018-09-13T05:13:42.008Z,10.00
2018-09-13T05:14:44.792Z,9.00
2018-09-13T05:15:47.613Z,5.75
2018-09-13T05:16:50.632Z,6.00
2018-09-13T05:17:55.435Z,7.75
2018-09-13T05:18:58.183Z,6.75
2018-09-13T05:20:01.956Z,11.25
2018-09-13T05:21:04.788Z,11.00
2018-09-13T05:22:07.635Z,10.75
2018-09-13T05:23:10.542Z,9.00
2018-09-13T05:24:13.744Z,8.00
2018-09-13T05:25:17.430Z,8.50
2018-09-13T05:26:20.231Z,8.75
2018-09-13T05:27:23.025Z,7.25
2018-09-13T05:28:25.810Z,5.75
2018-09-13T05:30:46.317Z,7.00
2018-09-13T05:44:35.284Z,7.00
2018-09-13T05:45:38.853Z,6.00
2018-09-13T05:47:52.539Z,5.75
2018-09-13T05:48:56.018Z,5.25
2018-09-13T05:49:59.094Z,6.50
2018-09-13T05:51:02.695Z,5.00
2018-09-13T05:52:05.484Z,6.00
2018-09-13T05:53:08.229Z,5.50
2018-09-13T05:54:11.236Z,6.00
2018-09-13T05:55:14.055Z,5.25
2018-09-13T05:56:17.156Z,6.50
2018-09-13T05:57:20.011Z,6.00
2018-09-13T05:58:22.897Z,5.75
2018-09-13T05:59:25.979Z,5.00
2018-09-13T06:00:28.797Z,7.50
2018-09-13T06:01:31.987Z,5.75
2018-09-13T06:02:36.479Z,6.50
2018-09-13T06:03:39.626Z,6.75
2018-09-13T06:04:42.355Z,7.25
2018-09-13T06:05:59.487Z,5.75
2018-09-13T06:07:04.987Z,6.75
2018-09-13T06:08:08.639Z,6.75
2018-09-13T06:09:13.656Z,6.00
2018-09-13T06:10:16.492Z,8.00
2018-09-13T06:11:19.308Z,6.75
2018-09-13T06:12:22.045Z,5.00
2018-09-13T06:13:26.384Z,6.75
2018-09-13T06:14:29.112Z,7.75
2018-09-13T06:15:32.327Z,7.25
2018-09-13T06:16:35.890Z,6.75
2018-09-13T06:17:38.777Z,5.00
2018-09-13T06:18:42.914Z,7.50
2018-09-13T06:19:45.732Z,6.75
2018-09-13T06:20:48.513Z,7.25
2018-09-13T06:21:52.573Z,7.00
2018-09-13T06:22:55.337Z,6.25
2018-09-13T06:23:58.158Z,8.25
2018-09-13T06:25:02.684Z,7.00
2018-09-13T06:26:06.258Z,8.00
2018-09-13T06:27:09.154Z,7.25
2018-09-13T06:28:12.224Z,8.00
2018-09-13T06:29:15.133Z,5.00
2018-09-13T06:30:17.875Z,7.50
2018-09-13T06:31:20.762Z,6.75
2018-09-13T06:32:23.541Z,7.75
2018-09-13T06:33:27.953Z,8.00
2018-09-13T06:34:30.762Z,7.25
2018-09-13T06:35:33.578Z,8.00
2018-09-13T06:36:36.325Z,6.75
2018-09-13T06:37:40.701Z,8.00
2018-09-13T06:38:43.447Z,6.50
2018-09-13T06:39:48.490Z,8.75
2018-09-13T06:40:51.260Z,9.50
2018-09-13T06:41:54.669Z,6.75
2018-09-13T06:42:59.250Z,8.00
2018-09-13T06:44:02.141Z,7.50
2018-09-13T06:45:04.915Z,8.00
2018-09-13T06:46:08.118Z,7.00
2018-09-13T06:47:10.906Z,8.75
2018-09-13T06:48:13.801Z,8.50
2018-09-13T06:49:16.613Z,8.00
2018-09-13T06:50:19.459Z,9.00
2018-09-13T06:51:22.266Z,8.50
2018-09-13T06:52:27.195Z,8.00
2018-09-13T06:53:29.954Z,9.00
2018-09-13T06:54:34.984Z,10.50
2018-09-13T06:55:37.868Z,9.00
2018-09-13T06:56:42.017Z,9.50
2018-09-13T06:57:44.795Z,8.25
2018-09-13T06:58:47.917Z,8.50
2018-09-13T06:59:50.722Z,9.00
2018-09-13T07:00:53.645Z,9.00
2018-09-13T07:01:56.503Z,8.25
2018-09-13T07:03:00.567Z,9.00
2018-09-13T07:04:03.325Z,8.75
2018-09-13T07:05:06.430Z,9.00
2018-09-13T07:06:09.952Z,8.25
2018-09-13T07:07:14.030Z,11.25
2018-09-13T07:08:17.026Z,8.00
2018-09-13T07:09:19.783Z,11.00
2018-09-13T07:10:22.647Z,9.50
2018-09-13T07:11:27.649Z,8.75
2018-09-13T07:12:30.392Z,10.00
2018-09-13T07:13:36.744Z,8.25
2018-09-13T07:14:39.526Z,8.75
2018-09-13T07:15:42.277Z,8.50
2018-09-13T07:16:45.010Z,9.00
2018-09-13T07:17:48.512Z,11.00
2018-09-13T07:18:51.259Z,9.50
2018-09-13T07:19:54.009Z,9.00
2018-09-13T07:20:56.904Z,8.75
2018-09-13T07:22:00.598Z,7.50
2018-09-13T07:23:03.328Z,8.50
2018-09-13T07:24:06.345Z,8.75
2018-09-13T07:25:09.101Z,8.75
2018-09-13T07:26:11.857Z,8.00
2018-09-13T07:27:14.653Z,9.00
2018-09-13T07:28:17.793Z,8.25
2018-09-13T07:29:20.574Z,8.00
2018-09-13T07:30:23.629Z,8.00
2018-09-13T07:31:26.426Z,8.00
2018-09-13T07:32:29.282Z,5.75
2018-09-13T07:33:32.053Z,8.00
2018-09-13T07:34:34.799Z,8.00
2018-09-13T07:35:37.613Z,7.50
2018-09-13T07:36:40.789Z,8.25
2018-09-13T07:37:43.579Z,6.00
2018-09-13T07:38:46.567Z,7.00
2018-09-13T07:39:49.438Z,6.50
2018-09-13T07:40:52.219Z,9.00
2018-09-13T07:41:57.998Z,8.00
2018-09-13T07:43:01.323Z,6.00
2018-09-13T07:44:04.960Z,9.00
2018-09-13T07:45:08.347Z,8.00
2018-09-13T07:46:12.157Z,6.25
2018-09-13T07:47:15.032Z,6.00
2018-09-13T07:48:18.753Z,6.00
2018-09-13T07:49:21.701Z,6.00
2018-09-13T07:50:24.761Z,8.00
2018-09-13T07:51:27.662Z,8.00
2018-09-13T07:52:30.460Z,6.50
2018-09-13T07:53:33.236Z,5.75
2018-09-13T07:54:36.332Z,8.50
2018-09-13T07:55:39.156Z,6.25
2018-09-13T07:56:42.861Z,8.00
2018-09-13T07:57:45.628Z,8.25
2018-09-13T07:58:48.450Z,6.00
2018-09-13T07:59:51.246Z,7.00
2018-09-13T08:00:54.319Z,6.00
2018-09-13T08:02:00.212Z,6.00
2018-09-13T08:03:02.953Z,9.25
2018-09-13T08:04:06.769Z,9.00
2018-09-13T08:05:13.420Z,9.00
2018-09-13T08:06:16.455Z,9.00
2018-09-13T08:07:19.565Z,6.50
2018-09-13T08:08:22.362Z,10.00
2018-09-13T08:09:25.222Z,8.00
2018-09-13T08:10:28.843Z,6.00
2018-09-13T08:11:31.676Z,7.00
2018-09-13T08:12:35.384Z,8.00
2018-09-13T08:13:38.690Z,5.50
2018-09-13T08:14:44.122Z,5.00
2018-09-13T08:15:48.686Z,5.25
2018-09-13T08:16:51.676Z,5.00
2018-09-13T08:17:54.521Z,5.25
2018-09-13T08:18:58.532Z,8.00
2018-09-13T08:20:01.695Z,7.00
2018-09-13T08:21:04.584Z,5.00
2018-09-13T08:22:10.070Z,5.50
2018-09-13T08:23:13.686Z,5.00
2018-09-13T08:24:16.448Z,5.00
2018-09-13T08:25:22.857Z,5.00
2018-09-13T08:26:27.490Z,4.25
2018-09-13T08:27:30.322Z,4.00
2018-09-13T08:28:33.293Z,4.25
2018-09-13T08:29:39.108Z,4.50
2018-09-13T08:30:45.423Z,4.00
2018-09-13T08:31:48.327Z,4.00
2018-09-13T08:32:52.937Z,4.75
2018-09-13T08:33:56.615Z,3.50
2018-09-13T08:35:00.787Z,4.00
2018-09-13T08:36:03.515Z,5.00
2018-09-13T08:37:06.325Z,4.00
2018-09-13T08:38:09.154Z,4.00
2018-09-13T08:39:13.137Z,2.50
2018-09-13T08:40:16.729Z,4.00
2018-09-13T08:41:19.572Z,4.00
2018-09-13T08:42:24.331Z,4.00
2018-09-13T08:43:30.488Z,4.75
2018-09-13T08:44:34.387Z,4.00
2018-09-13T08:45:38.507Z,4.00
2018-09-13T08:46:44.953Z,5.00
2018-09-13T08:47:47.973Z,5.00
2018-09-13T08:48:52.892Z,5.00
2018-09-13T08:49:55.684Z,4.00
2018-09-13T08:50:58.502Z,4.00
2018-09-13T08:52:01.818Z,4.25
2018-09-13T08:53:04.594Z,2.25
2018-09-13T08:54:09.316Z,3.75
2018-09-13T08:55:12.132Z,4.00
2018-09-13T08:56:15.023Z,5.00
2018-09-13T08:57:17.884Z,5.00
2018-09-13T08:58:21.038Z,4.50
2018-09-13T08:59:24.444Z,3.75
2018-09-13T09:00:27.238Z,3.75
2018-09-13T09:01:30.040Z,5.00
2018-09-13T09:02:32.784Z,3.00
2018-09-13T09:03:35.583Z,2.00
2018-09-13T09:04:38.791Z,3.75
2018-09-13T09:05:42.400Z,3.75
2018-09-13T09:06:45.300Z,3.75
2018-09-13T09:07:48.131Z,3.75
2018-09-13T09:08:50.841Z,3.75
2018-09-13T09:09:53.602Z,3.75
2018-09-13T09:10:57.227Z,3.75
2018-09-13T09:11:59.992Z,4.75
2018-09-13T09:13:03.407Z,3.75
2018-09-13T09:14:06.271Z,5.00
2018-09-13T09:15:09.044Z,3.25
2018-09-13T09:16:12.580Z,3.75
2018-09-13T09:17:15.891Z,5.00
2018-09-13T09:18:18.661Z,5.00
2018-09-13T09:19:21.890Z,5.00
2018-09-13T09:20:24.691Z,5.00
2018-09-13T09:21:27.695Z,4.25
2018-09-13T09:22:31.208Z,4.00
2018-09-13T09:23:34.323Z,5.00
2018-09-13T09:24:37.076Z,3.75
2018-09-13T09:25:39.847Z,4.25
2018-09-13T09:26:42.594Z,3.75
2018-09-13T09:27:45.381Z,5.00
2018-09-13T09:28:48.312Z,5.50
2018-09-13T09:29:51.571Z,5.00
2018-09-13T09:30:55.285Z,6.00
2018-09-13T09:31:58.734Z,5.00
2018-09-13T09:33:01.751Z,5.25
2018-09-13T09:34:04.941Z,5.75
2018-09-13T09:35:08.054Z,6.00
2018-09-13T09:36:12.682Z,5.50
2018-09-13T09:37:16.858Z,5.50
2018-09-13T09:38:21.712Z,5.25
2018-09-13T09:39:25.729Z,5.00
2018-09-13T09:40:28.776Z,5.00
2018-09-13T09:41:32.540Z,4.75
2018-09-13T09:42:35.991Z,5.00
2018-09-13T09:43:38.985Z,6.00
2018-09-13T09:44:42.058Z,5.25
2018-09-13T09:45:44.992Z,5.50
2018-09-13T09:46:48.007Z,5.50
2018-09-13T09:47:51.061Z,5.00
2018-09-13T09:48:54.414Z,7.75
2018-09-13T09:49:57.448Z,4.25
2018-09-13T09:51:00.264Z,5.00
2018-09-13T09:52:05.786Z,4.25
2018-09-13T09:53:09.578Z,4.00
2018-09-13T09:54:14.508Z,5.00
2018-09-13T09:55:21.831Z,5.00
2018-09-13T09:56:24.909Z,4.00
2018-09-13T09:57:28.469Z,4.50
2018-09-13T09:58:31.352Z,5.50
2018-09-13T09:59:34.278Z,5.00
2018-09-13T10:00:42.027Z,5.00
2018-09-13T10:01:50.243Z,5.50
2018-09-13T10:02:53.293Z,5.25
2018-09-13T10:06:18.029Z,12.00
2018-09-13T10:07:21.144Z,9.50
2018-09-13T10:08:24.241Z,9.75
2018-09-13T10:09:26.932Z,9.00
2018-09-13T10:10:29.785Z,6.50
2018-09-13T10:11:32.993Z,8.25
2018-09-13T10:12:35.756Z,6.00
2018-09-13T10:13:38.992Z,6.25
2018-09-13T10:14:42.251Z,6.00
2018-09-13T10:15:51.046Z,5.00
2018-09-13T10:16:58.641Z,6.00
2018-09-13T10:20:13.709Z,5.25
2018-09-13T10:21:21.347Z,6.50
2018-09-13T10:22:29.051Z,5.00
2018-09-13T10:23:36.779Z,6.00
2018-09-13T10:24:44.521Z,5.00
2018-09-13T10:25:52.195Z,8.00
2018-09-13T10:27:00.435Z,8.75
2018-09-13T10:28:08.098Z,8.00
2018-09-13T10:29:15.870Z,8.00
2018-09-13T10:30:23.559Z,5.50
2018-09-13T10:43:53.846Z,8.00
2018-09-13T10:45:01.554Z,7.75
2018-09-13T10:46:09.258Z,7.00
2018-09-13T10:47:17.169Z,6.00
2018-09-13T10:48:26.232Z,6.00
2018-09-13T10:49:33.860Z,5.75
2018-09-13T10:50:40.403Z,5.50
2018-09-13T10:51:48.136Z,5.00
2018-09-13T10:52:53.843Z,5.50
2018-09-13T10:55:02.800Z,5.75
2018-09-13T10:56:06.108Z,5.25
2018-09-13T10:57:14.174Z,7.75
2018-09-13T10:58:17.142Z,7.25
2018-09-13T10:59:19.992Z,6.75
2018-09-13T11:00:22.910Z,5.00
2018-09-13T11:01:26.052Z,4.50
2018-09-13T11:02:28.921Z,6.50
2018-09-13T11:03:32.054Z,10.00
2018-09-13T11:04:35.357Z,6.75
2018-09-13T11:05:38.496Z,8.50
2018-09-13T11:06:41.209Z,8.00
2018-09-13T11:07:44.283Z,7.00
2018-09-13T11:08:47.073Z,6.00
2018-09-13T11:09:49.872Z,6.50
2018-09-13T11:10:52.981Z,6.25
2018-09-13T11:11:55.627Z,5.00
2018-09-13T11:13:05.605Z,5.00
2018-09-13T11:14:12.508Z,6.00
2018-09-13T11:15:47.460Z,9.50
2018-09-13T11:16:50.149Z,7.75
2018-09-13T11:17:52.796Z,5.00
2018-09-13T11:18:55.449Z,5.00
2018-09-13T11:19:58.230Z,5.75
2018-09-13T11:21:00.895Z,5.00
2018-09-13T11:22:03.676Z,6.00
2018-09-13T11:23:06.409Z,7.00
2018-09-13T11:24:09.090Z,6.00
2018-09-13T11:25:12.296Z,9.50
2018-09-13T11:26:15.064Z,7.00
2018-09-13T11:27:17.766Z,6.25
2018-09-13T11:28:20.499Z,5.00
2018-09-13T11:29:23.228Z,5.25
2018-09-13T11:30:27.038Z,7.00
2018-09-13T11:31:30.115Z,6.00
2018-09-13T11:32:32.806Z,6.00
2018-09-13T11:33:35.825Z,6.00
2018-09-13T11:34:38.513Z,6.00
2018-09-13T11:35:41.213Z,9.00
2018-09-13T11:36:44.017Z,6.25
2018-09-13T11:37:47.154Z,6.00
2018-09-13T11:38:49.839Z,5.50
2018-09-13T11:39:52.590Z,5.00
2018-09-13T11:40:55.542Z,7.00
2018-09-13T11:41:58.152Z,5.25
2018-09-13T11:43:00.876Z,6.00
2018-09-13T11:44:04.030Z,5.50
2018-09-13T11:45:07.044Z,5.50
2018-09-13T11:46:09.702Z,10.00
2018-09-13T11:47:12.435Z,9.25
2018-09-13T11:48:15.170Z,10.50
2018-09-13T11:49:17.886Z,10.25
2018-09-13T11:50:21.069Z,6.00
2018-09-13T11:51:23.839Z,5.75
2018-09-13T11:52:26.549Z,6.00
2018-09-13T11:53:29.365Z,3.50
2018-09-13T11:54:32.114Z,4.50
2018-09-13T11:55:38.616Z,4.50
2018-09-13T11:56:41.683Z,5.00
2018-09-13T11:57:44.422Z,5.00
2018-09-13T11:58:47.139Z,6.50
2018-09-13T11:59:49.901Z,13.75
2018-09-13T12:00:52.759Z,11.00
2018-09-13T12:01:55.513Z,9.75
2018-09-13T12:02:58.952Z,7.00
2018-09-13T12:04:01.899Z,5.00
2018-09-13T12:05:04.658Z,5.00
2018-09-13T12:06:07.440Z,5.00
2018-09-13T12:07:10.175Z,5.50
2018-09-13T12:08:12.882Z,5.75
2018-09-13T12:09:16.483Z,5.00
2018-09-13T12:10:19.320Z,3.00
2018-09-13T12:11:22.191Z,3.50
2018-09-13T12:12:24.879Z,3.00
2018-09-13T12:13:27.761Z,10.00
2018-09-13T12:14:30.490Z,9.25
2018-09-13T12:15:33.598Z,3.00
2018-09-13T12:16:36.358Z,5.50
2018-09-13T12:17:39.076Z,3.50
2018-09-13T12:18:41.787Z,3.00
2018-09-13T12:19:44.551Z,3.50
2018-09-13T12:20:47.247Z,6.00
2018-09-13T12:21:50.674Z,5.00
2018-09-13T12:22:53.206Z,6.00
2018-09-13T12:23:55.861Z,3.50
2018-09-13T12:24:58.564Z,5.00
2018-09-13T12:26:01.244Z,4.00
2018-09-13T12:27:03.974Z,3.00
2018-09-13T12:28:07.058Z,3.50
2018-09-13T12:29:10.016Z,3.00
2018-09-13T12:30:12.827Z,4.00
2018-09-13T12:31:15.511Z,3.50
2018-09-13T12:32:18.540Z,3.00
2018-09-13T12:33:22.613Z,5.25
2018-09-13T12:34:25.956Z,5.00
2018-09-13T12:35:28.635Z,3.50
2018-09-13T12:36:31.932Z,3.50
2018-09-13T12:37:34.642Z,4.50
2018-09-13T12:38:37.408Z,4.00
2018-09-13T12:39:40.600Z,3.00
2018-09-13T12:40:43.960Z,2.75
2018-09-13T12:41:46.806Z,1.75
2018-09-13T12:42:49.541Z,3.00
2018-09-13T12:43:52.307Z,2.00
2018-09-13T12:44:55.002Z,3.00
2018-09-13T12:45:58.276Z,3.00
2018-09-13T12:47:01.416Z,3.00
2018-09-13T12:48:04.100Z,3.00
2018-09-13T12:49:06.815Z,3.00
2018-09-13T12:50:09.637Z,2.00
2018-09-13T12:51:12.687Z,2.00
2018-09-13T12:52:15.384Z,2.25
2018-09-13T12:53:18.604Z,3.50
2018-09-13T12:54:21.350Z,5.00
2018-09-13T12:55:28.131Z,3.00
2018-09-13T12:56:30.930Z,3.00
2018-09-13T12:57:34.760Z,2.75
2018-09-13T12:58:37.662Z,4.00
2018-09-13T12:59:41.342Z,2.00
2018-09-13T13:00:44.181Z,3.00
2018-09-13T13:01:47.612Z,3.00
2018-09-13T13:02:50.795Z,2.50
2018-09-13T13:03:53.571Z,2.00
2018-09-13T13:04:56.314Z,2.00
2018-09-13T13:05:59.500Z,2.00
2018-09-13T13:07:02.322Z,1.75
2018-09-13T13:08:07.746Z,2.25
2018-09-13T13:09:11.519Z,2.50
2018-09-13T13:10:14.693Z,2.75
2018-09-13T13:11:18.206Z,3.00
2018-09-13T13:12:21.457Z,2.25
2018-09-13T13:13:24.200Z,2.25
2018-09-13T13:14:26.892Z,3.00
2018-09-13T13:15:30.240Z,1.50
2018-09-13T13:16:34.200Z,2.00
2018-09-13T13:17:37.133Z,2.50
2018-09-13T13:18:40.170Z,3.00
2018-09-13T13:19:43.444Z,3.00
2018-09-13T13:20:46.213Z,2.00
2018-09-13T13:21:49.535Z,2.00
2018-09-13T13:22:52.911Z,3.00
2018-09-13T13:23:56.271Z,2.00
2018-09-13T13:25:00.184Z,1.00
2018-09-13T13:26:03.804Z,1.00
2018-09-13T13:27:06.612Z,2.00
2018-09-13T13:28:09.424Z,1.00
2018-09-13T13:29:13.016Z,2.00
2018-09-13T13:30:15.808Z,1.50
2018-09-13T13:31:19.098Z,1.25
2018-09-13T13:32:21.974Z,2.25
2018-09-13T13:33:24.741Z,2.00
2018-09-13T13:34:27.670Z,1.50
2018-09-13T13:35:30.619Z,2.00
2018-09-13T13:36:33.436Z,1.00
2018-09-13T13:37:36.162Z,1.00
2018-09-13T13:38:38.975Z,2.00
2018-09-13T13:39:41.861Z,2.00
2018-09-13T13:40:44.662Z,3.00
2018-09-13T13:41:48.925Z,3.00
2018-09-13T13:42:54.448Z,2.25
2018-09-13T13:43:58.165Z,3.00
2018-09-13T13:45:02.220Z,3.00
2018-09-13T13:46:06.234Z,2.25
2018-09-13T13:47:10.092Z,2.00
2018-09-13T13:48:14.418Z,2.00
2018-09-13T13:49:19.907Z,2.50
2018-09-13T13:50:24.565Z,3.00
2018-09-13T13:51:30.159Z,3.00
2018-09-13T13:52:34.589Z,2.00
2018-09-13T13:53:40.417Z,3.00
2018-09-13T15:44:00.337Z,2.00
2018-09-13T15:45:03.126Z,3.50
2018-09-13T15:46:05.925Z,4.25
2018-09-13T15:47:08.679Z,4.75
2018-09-13T15:48:11.678Z,4.75
2018-09-13T15:49:15.150Z,5.00
2018-09-13T15:50:17.926Z,4.75
2018-09-13T15:51:20.620Z,5.50
2018-09-13T15:52:23.348Z,5.00
2018-09-13T15:53:26.039Z,5.00
2018-09-13T15:54:28.836Z,5.00
2018-09-13T15:55:31.977Z,4.25
2018-09-13T15:56:34.733Z,4.25
2018-09-13T15:57:37.386Z,3.00
2018-09-13T15:58:40.231Z,5.25
2018-09-13T15:59:42.914Z,7.50
2018-09-13T16:00:45.682Z,5.00
2018-09-13T16:01:48.864Z,5.50
2018-09-13T16:02:51.521Z,5.75
2018-09-13T16:03:54.253Z,4.75
2018-09-13T16:04:56.922Z,5.25
2018-09-13T16:05:59.753Z,5.25
2018-09-13T16:07:02.514Z,5.25
2018-09-13T16:08:05.603Z,4.50
2018-09-13T16:09:08.341Z,4.50
2018-09-13T16:10:11.600Z,5.50
2018-09-13T16:11:14.357Z,2.00
2018-09-13T16:12:17.080Z,4.00
2018-09-13T16:13:19.813Z,4.75
2018-09-13T16:14:22.794Z,5.00
2018-09-13T16:15:25.510Z,4.00
2018-09-13T16:16:28.269Z,5.00
2018-09-13T16:17:31.100Z,6.00
2018-09-13T16:18:34.303Z,5.00
2018-09-13T16:19:37.026Z,5.00
2018-09-13T16:20:40.226Z,5.00
2018-09-13T16:21:43.113Z,3.00
2018-09-13T16:22:45.809Z,4.25